Time;durP1;ratioP1;P1;durP2;ratioP2;P2;SDS_P1;SDS_P2;PMS_P1;PMS_P2;Temp;Humidity;BMP_temperature;BMP_pressure;BME280_temperature;BME280_humidity;BME280_pressure;Samples;Min_cycle;Max_cycle;Signal;HPM_P1;HPM_P2
2022/04/21 00:00:17;;;;;;;51.00;31.90;;;;;;;5.97;57.37;98542.95;105581;1279;99077;-68
2022/04/21 00:03:05;;;;;;;49.50;32.20;;;;;;;5.98;57.50;98540.25;107338;1278;106763;-69
2022/04/21 00:05:37;;;;;;;48.40;32.10;;;;;;;5.98;57.42;98542.87;105867;1279;99237;-67
2022/04/21 00:08:05;;;;;;;49.40;33.50;;;;;;;6.00;57.49;98538.40;105798;1278;99203;-69
2022/04/21 00:10:33;;;;;;;48.50;32.00;;;;;;;6.02;57.51;98539.65;105816;1278;113408;-69
2022/04/21 00:13:01;;;;;;;48.50;33.40;;;;;;;6.04;57.54;98536.05;105955;1277;99372;-67
2022/04/21 00:15:35;;;;;;;47.40;31.20;;;;;;;6.04;57.52;98540.63;105911;1278;108588;-68
2022/04/21 00:18:03;;;;;;;48.00;31.50;;;;;;;6.04;57.75;98542.17;105843;1279;99255;-67
2022/04/21 00:20:31;;;;;;;46.90;32.00;;;;;;;6.04;57.65;98541.87;105938;1279;99235;-68
2022/04/21 00:25:46;;;;;;;53.30;32.50;;;;;;;5.99;57.61;98528.39;105831;1279;97677;-68
2022/04/21 00:28:16;;;;;;;51.60;32.30;;;;;;;5.97;57.64;98522.35;105931;1279;109088;-68
2022/04/21 00:30:44;;;;;;;52.10;34.10;;;;;;;5.93;57.69;98522.94;105892;1278;99441;-68
2022/04/21 00:33:12;;;;;;;57.00;35.80;;;;;;;5.91;57.84;98523.79;105909;1279;99239;-68
2022/04/21 00:35:40;;;;;;;55.40;34.50;;;;;;;5.91;57.76;98524.27;105841;1279;113251;-67
2022/04/21 00:38:11;;;;;;;50.40;31.30;;;;;;;5.91;57.86;98518.33;105809;1279;99326;-68
2022/04/21 00:40:42;;;;;;;50.30;33.90;;;;;;;5.88;57.88;98524.68;105804;1278;107519;-69
2022/04/21 00:43:10;;;;;;;53.50;34.80;;;;;;;5.86;57.98;98528.51;105838;1278;99800;-67
2022/04/21 00:45:40;;;;;;;54.10;34.70;;;;;;;5.88;57.94;98528.56;105873;1278;99237;-67
2022/04/21 00:48:14;;;;;;;56.80;34.90;;;;;;;5.87;58.00;98523.48;105962;1278;113789;-68
2022/04/21 00:50:42;;;;;;;54.20;35.90;;;;;;;5.88;58.16;98523.96;105797;1279;99012;-67
2022/04/21 00:53:12;;;;;;;51.00;34.70;;;;;;;5.89;58.16;98522.52;105816;1278;108505;-67
2022/04/21 00:55:43;;;;;;;54.80;35.90;;;;;;;5.86;58.04;98524.79;105872;1277;99337;-68
2022/04/21 00:58:11;;;;;;;55.40;34.00;;;;;;;5.86;58.16;98520.77;105954;1280;99315;-69
2022/04/21 01:00:39;;;;;;;54.80;35.90;;;;;;;5.86;58.35;98519.70;105965;1278;115450;-68
2022/04/21 01:03:13;;;;;;;57.40;35.50;;;;;;;5.88;58.25;98523.82;105972;1277;99254;-68
2022/04/21 01:05:41;;;;;;;54.30;35.30;;;;;;;5.89;58.27;98523.88;106063;1277;108066;-68
2022/04/21 01:08:12;;;;;;;52.90;35.60;;;;;;;5.90;58.31;98531.75;105984;1277;99246;-68
2022/04/21 01:10:43;;;;;;;54.10;36.00;;;;;;;5.91;58.48;98534.34;105858;1277;99223;-68
2022/04/21 01:13:13;;;;;;;55.90;34.50;;;;;;;5.92;58.25;98534.05;105881;1278;113426;-68
2022/04/21 01:15:43;;;;;;;57.10;37.30;;;;;;;5.91;58.34;98532.96;105954;1278;96976;-68
2022/04/21 01:18:11;;;;;;;56.60;37.30;;;;;;;5.89;58.56;98533.77;105861;1278;108452;-67
2022/04/21 01:20:39;;;;;;;56.30;36.90;;;;;;;5.89;58.33;98534.61;105967;1278;98341;-67
2022/04/21 01:23:09;;;;;;;58.80;36.50;;;;;;;5.87;58.52;98532.30;105948;1278;99336;-67
2022/04/21 01:25:41;;;;;;;53.40;36.60;;;;;;;5.88;58.53;98530.33;105890;1279;113505;-67
2022/04/21 01:28:12;;;;;;;54.40;36.20;;;;;;;5.89;58.60;98533.23;105952;1278;98999;-67
2022/04/21 01:30:46;;;;;;;53.80;37.40;;;;;;;5.91;58.71;98529.60;105882;1277;108425;-67
2022/04/21 01:33:14;;;;;;;54.90;36.20;;;;;;;5.92;58.62;98530.38;105680;1281;99391;-67
2022/04/21 01:35:44;;;;;;;51.80;34.00;;;;;;;5.93;58.77;98526.13;105905;1279;99224;-66
2022/04/21 01:41:10;;;;;;;48.60;32.30;;;;;;;5.94;58.93;98520.39;105953;1279;99322;-66
2022/04/21 01:43:43;;;;;;;55.20;35.90;;;;;;;5.93;58.75;98520.29;105917;1277;107937;-66
2022/04/21 01:46:11;;;;;;;50.00;32.90;;;;;;;5.92;58.88;98518.38;105930;1278;99318;-67
2022/04/21 01:48:42;;;;;;;48.80;30.00;;;;;;;5.90;58.83;98519.77;105922;1277;96615;-68
2022/04/21 01:51:10;;;;;;;47.40;32.00;;;;;;;5.89;58.75;98520.59;105944;1278;112345;-65
2022/04/21 01:53:41;;;;;;;46.80;31.00;;;;;;;5.88;58.87;98519.36;105928;1278;99351;-70
2022/04/21 01:56:12;;;;;;;48.10;30.80;;;;;;;5.88;58.88;98516.55;105915;1278;108357;-68
2022/04/21 01:58:40;;;;;;;50.60;30.90;;;;;;;5.84;58.92;98515.93;105933;1278;99331;-69
2022/04/21 02:01:11;;;;;;;53.00;32.70;;;;;;;5.84;59.12;98510.16;105944;1278;99309;-69
2022/04/21 02:03:40;;;;;;;50.50;31.60;;;;;;;5.84;58.91;98506.27;105921;1279;113438;-68
2022/04/21 02:06:08;;;;;;;48.00;31.70;;;;;;;5.81;58.97;98495.20;105932;1279;97601;-68
2022/04/21 02:08:38;;;;;;;48.20;31.00;;;;;;;5.80;59.07;98488.69;105893;1279;109266;-69
2022/04/21 02:11:06;;;;;;;48.10;32.00;;;;;;;5.83;59.04;98491.73;105839;1279;99309;-69
2022/04/21 02:13:34;;;;;;;51.20;33.60;;;;;;;5.82;59.12;98498.82;105989;1278;99246;-66
2022/04/21 02:16:02;;;;;;;49.40;32.80;;;;;;;5.80;59.13;98501.02;105947;1278;112771;-68
2022/04/21 02:18:32;;;;;;;50.50;31.00;;;;;;;5.82;59.39;98499.16;105889;1279;99309;-67
2022/04/21 02:21:00;;;;;;;47.40;30.10;;;;;;;5.85;59.37;98498.30;105890;1278;108398;-67
2022/04/21 02:23:28;;;;;;;46.50;29.40;;;;;;;5.87;59.27;98497.30;105882;1278;99317;-68
2022/04/21 02:25:56;;;;;;;46.20;29.10;;;;;;;5.86;59.34;98495.97;105920;1278;99336;-66
2022/04/21 02:28:25;;;;;;;45.80;29.00;;;;;;;5.85;59.45;98495.84;105932;1278;113275;-67
2022/04/21 02:30:55;;;;;;;44.90;29.60;;;;;;;5.84;59.45;98502.55;105992;1278;96682;-67
2022/04/21 02:33:24;;;;;;;44.70;28.90;;;;;;;5.86;59.53;98507.58;106003;1278;106384;-67
2022/04/21 02:35:54;;;;;;;47.80;29.60;;;;;;;5.85;59.39;98506.04;105901;1277;99318;-68
2022/04/21 02:38:22;;;;;;;47.20;28.20;;;;;;;5.85;59.44;98501.63;105895;1277;96737;-68
2022/04/21 02:40:50;;;;;;;42.10;25.40;;;;;;;5.82;59.44;98503.57;105970;1278;112323;-67
2022/04/21 02:43:19;;;;;;;49.30;29.60;;;;;;;5.77;59.37;98503.49;105938;1279;99356;-67
2022/04/21 02:45:47;;;;;;;48.80;30.80;;;;;;;5.73;59.43;98501.63;105941;1278;109182;-68
2022/04/21 02:48:16;;;;;;;46.50;28.70;;;;;;;5.73;59.62;98500.46;105920;1277;99232;-68
2022/04/21 02:50:51;;;;;;;48.60;30.20;;;;;;;5.72;59.71;98502.22;105988;1278;99227;-65
2022/04/21 02:57:19;;;;;;;45.00;29.90;;;;;;;5.72;59.69;98502.75;105911;1278;113161;-67
2022/04/21 02:59:00;;;;;;;43.80;28.80;;;;;;;5.72;59.67;98495.90;105883;1280;108299;-65
2022/04/21 03:01:28;;;;;;;44.30;28.20;;;;;;;5.70;59.79;98494.78;105856;1281;99232;-66
2022/04/21 03:03:58;;;;;;;47.90;30.40;;;;;;;5.71;59.81;98489.65;105919;1280;96762;-65
2022/04/21 03:06:26;;;;;;;44.50;28.30;;;;;;;5.71;59.85;98490.36;105885;1279;113337;-65
2022/04/21 03:08:55;;;;;;;43.80;28.50;;;;;;;5.70;59.83;98487.09;105861;1281;99352;-66
2022/04/21 03:11:23;;;;;;;43.20;28.00;;;;;;;5.68;59.83;98488.93;105880;1279;108502;-67
2022/04/21 03:13:51;;;;;;;43.60;26.50;;;;;;;5.67;59.92;98488.66;105919;1281;99214;-65
2022/04/21 03:16:22;;;;;;;42.60;26.00;;;;;;;5.67;59.94;98491.12;105947;1279;99234;-66
2022/04/21 03:18:50;;;;;;;41.10;25.10;;;;;;;5.65;60.04;98489.10;105876;1279;113578;-65
2022/04/21 03:24:19;;;;;;;38.60;24.90;;;;;;;5.63;60.05;98483.77;105878;1281;108382;-68
2022/04/21 03:26:51;;;;;;;37.10;23.00;;;;;;;5.64;60.14;98483.58;105767;1279;99848;-66
2022/04/21 03:29:22;;;;;;;38.10;24.00;;;;;;;5.62;59.97;98481.17;105817;1281;98678;-66
2022/04/21 03:31:52;;;;;;;36.10;21.50;;;;;;;5.63;60.20;98478.55;105620;1281;114298;-67
2022/04/21 03:34:23;;;;;;;39.10;23.10;;;;;;;5.62;60.18;98475.38;105845;1281;99951;-68
2022/04/21 03:36:51;;;;;;;40.20;24.50;;;;;;;5.63;60.19;98475.20;105838;1279;108375;-66
2022/04/21 03:39:24;;;;;;;42.30;24.40;;;;;;;5.61;60.09;98469.81;105870;1281;99270;-67
2022/04/21 03:41:54;;;;;;;40.80;24.90;;;;;;;5.60;60.16;98469.21;105856;1280;99198;-67
2022/04/21 03:44:25;;;;;;;41.20;26.10;;;;;;;5.58;60.32;98467.22;103689;1281;2790431;-67
2022/04/21 03:46:57;;;;;;;41.50;26.00;;;;;;;5.57;60.29;98472.37;105641;1281;100370;-67
2022/04/21 03:49:31;;;;;;;43.10;27.20;;;;;;;5.59;60.21;98471.02;105669;1281;108386;-68
2022/04/21 03:52:00;;;;;;;40.10;25.10;;;;;;;5.62;60.41;98471.03;105700;1281;99339;-68
2022/04/21 03:54:28;;;;;;;42.50;26.10;;;;;;;5.63;60.38;98467.95;105745;1280;99785;-68
2022/04/21 03:56:56;;;;;;;42.30;26.70;;;;;;;5.65;60.40;98469.91;105771;1279;113027;-67
2022/04/21 03:59:25;;;;;;;44.00;27.40;;;;;;;5.67;60.44;98473.54;105824;1281;99300;-69
2022/04/21 04:01:53;;;;;;;42.80;27.90;;;;;;;5.68;60.55;98471.38;105846;1280;107993;-67
2022/04/21 04:04:22;;;;;;;42.40;26.40;;;;;;;5.70;60.59;98472.69;105908;1280;99243;-68
2022/04/21 04:12:35;;;;;;;43.40;28.00;;;;;;;5.72;60.66;98475.48;105714;1281;99342;-70
2022/04/21 04:15:07;;;;;;;48.80;28.50;;;;;;;5.71;60.59;98475.54;105698;1280;108301;-67
2022/04/21 04:17:37;;;;;;;43.20;27.80;;;;;;;5.70;60.68;98472.79;105871;1281;99326;-68
2022/04/21 04:20:09;;;;;;;46.00;28.40;;;;;;;5.70;60.62;98478.11;105902;1281;99177;-68
2022/04/21 04:22:40;;;;;;;45.50;29.10;;;;;;;5.69;60.76;98473.42;105902;1281;113456;-66
2022/04/21 04:25:10;;;;;;;43.80;28.40;;;;;;;5.69;60.62;98473.80;105925;1280;99288;-69
2022/04/21 04:27:38;;;;;;;51.50;32.60;;;;;;;5.68;60.81;98469.23;105694;1281;108558;-67
2022/04/21 04:30:09;;;;;;;51.40;33.80;;;;;;;5.70;60.75;98468.11;105702;1280;99365;-68
2022/04/21 04:32:37;;;;;;;53.30;34.50;;;;;;;5.67;60.77;98465.77;105745;1278;96667;-69
2022/04/21 04:35:08;;;;;;;49.70;31.30;;;;;;;5.66;60.88;98468.98;105916;1281;114089;-66
2022/04/21 04:37:39;;;;;;;46.50;31.40;;;;;;;5.66;60.92;98467.77;105933;1281;99243;-68
2022/04/21 04:40:12;;;;;;;46.80;29.50;;;;;;;5.68;60.79;98468.73;105736;1281;108562;-66
2022/04/21 04:42:40;;;;;;;48.80;31.20;;;;;;;5.69;60.97;98471.32;105701;1281;99117;-68
2022/04/21 04:48:09;;;;;;;51.80;32.80;;;;;;;5.68;60.99;98468.39;105763;1281;113415;-66
2022/04/21 04:50:37;;;;;;;51.00;32.60;;;;;;;5.68;61.02;98469.63;105891;1281;99243;-67
2022/04/21 04:53:09;;;;;;;50.60;33.70;;;;;;;5.67;61.01;98470.35;105893;1281;108528;-67
2022/04/21 04:55:40;;;;;;;49.60;31.60;;;;;;;5.69;61.09;98467.46;105839;1281;99330;-67
2022/04/21 04:58:09;;;;;;;50.70;34.00;;;;;;;5.69;61.11;98465.48;105819;1279;99264;-67
2022/04/21 05:00:39;;;;;;;47.30;32.00;;;;;;;5.71;61.21;98462.54;105870;1280;113469;-66
2022/04/21 05:03:09;;;;;;;50.60;33.50;;;;;;;5.73;60.97;98461.21;105818;1279;99322;-67
2022/04/21 05:05:39;;;;;;;55.10;35.00;;;;;;;5.71;61.00;98460.47;105809;1281;108339;-67
2022/04/21 05:08:07;;;;;;;47.10;31.70;;;;;;;5.70;61.12;98462.80;105800;1279;99236;-67
2022/04/21 05:10:35;;;;;;;52.50;34.50;;;;;;;5.70;61.13;98460.69;105874;1277;99292;-68
2022/04/21 05:13:02;;;;;;;53.80;33.70;;;;;;;5.69;61.23;98457.73;105833;1277;112704;-68
2022/04/21 05:15:31;;;;;;;52.90;34.90;;;;;;;5.71;61.29;98457.96;105856;1277;99302;-67
2022/04/21 05:18:01;;;;;;;55.00;35.40;;;;;;;5.75;61.27;98457.05;105883;1278;108279;-68
2022/04/21 05:20:32;;;;;;;51.50;33.10;;;;;;;5.77;61.32;98456.73;105833;1278;99175;-67
2022/04/21 05:23:06;;;;;;;59.60;38.00;;;;;;;5.79;61.35;98454.80;105848;1278;99212;-66
2022/04/21 05:25:37;;;;;;;49.30;32.30;;;;;;;5.79;61.42;98454.66;105861;1280;113145;-66
2022/04/21 05:28:09;;;;;;;53.50;35.20;;;;;;;5.80;61.44;98453.38;105738;1279;99438;-67
2022/04/21 05:30:55;;;;;;;55.70;33.80;;;;;;;5.83;61.41;98452.86;105861;1280;107848;-67
2022/04/21 05:33:28;;;;;;;53.70;35.50;;;;;;;5.86;61.41;98449.69;105820;1277;99332;-67
2022/04/21 05:35:59;;;;;;;55.90;37.00;;;;;;;5.86;61.21;98449.50;105859;1277;97005;-66
2022/04/21 05:38:32;;;;;;;55.50;37.50;;;;;;;5.84;61.35;98449.81;105892;1277;113497;-67
2022/04/21 05:41:03;;;;;;;55.90;36.60;;;;;;;5.85;61.46;98447.95;105933;1279;96681;-67
2022/04/21 05:43:43;;;;;;;61.10;40.60;;;;;;;5.89;61.57;98448.41;105976;1277;107785;-66
2022/04/21 05:46:16;;;;;;;55.60;36.80;;;;;;;5.93;61.61;98449.73;105946;1280;99372;-66
2022/04/21 05:48:47;;;;;;;51.90;33.80;;;;;;;5.97;61.56;98448.95;105957;1277;96574;-67
2022/04/21 05:51:17;;;;;;;60.00;39.50;;;;;;;6.00;61.57;98448.80;105979;1277;113409;-66
2022/04/21 05:53:50;;;;;;;52.50;35.80;;;;;;;6.00;61.50;98449.84;105971;1277;99246;-65
2022/04/21 05:56:18;;;;;;;60.20;40.80;;;;;;;6.01;61.66;98447.85;105931;1277;108224;-66
2022/04/21 05:58:46;;;;;;;61.10;41.70;;;;;;;6.04;61.65;98446.98;105953;1277;99230;-67
2022/04/21 06:01:19;;;;;;;62.00;40.80;;;;;;;6.06;61.75;98448.05;105975;1277;96568;-68
2022/04/21 06:03:48;;;;;;;56.70;38.80;;;;;;;6.12;61.68;98447.48;105922;1277;113011;-68
2022/04/21 06:06:16;;;;;;;59.80;39.30;;;;;;;6.22;61.63;98445.11;105993;1278;98983;-68
2022/04/21 06:08:47;;;;;;;58.60;39.80;;;;;;;6.33;61.82;98446.02;105825;1279;108917;-69
2022/04/21 06:11:15;;;;;;;61.20;38.70;;;;;;;6.42;61.80;98449.30;105718;1279;98848;-68
2022/04/21 06:13:45;;;;;;;48.80;31.50;;;;;;;6.48;61.66;98453.48;105863;1279;101182;-68
2022/04/21 06:16:16;;;;;;;56.80;37.40;;;;;;;6.55;61.80;98456.71;105808;1279;113370;-65
2022/04/21 06:18:46;;;;;;;50.90;34.50;;;;;;;6.60;61.53;98456.93;105942;1279;99710;-67
2022/04/21 06:21:14;;;;;;;50.00;32.10;;;;;;;6.59;61.84;98456.84;105871;1279;108386;-66
2022/04/21 06:23:42;;;;;;;53.80;35.80;;;;;;;6.58;61.77;98454.92;105867;1279;96620;-66
2022/04/21 06:26:12;;;;;;;54.60;36.60;;;;;;;6.60;61.84;98454.29;105937;1279;99116;-68
2022/04/21 06:28:41;;;;;;;48.40;32.40;;;;;;;6.66;61.92;98451.41;105747;1279;113470;-66
2022/04/21 06:31:11;;;;;;;46.20;30.20;;;;;;;6.72;61.92;98446.99;105820;1279;99243;-69
2022/04/21 06:33:41;;;;;;;44.50;28.90;;;;;;;6.75;62.12;98445.03;105732;1281;109043;-67
2022/04/21 06:36:09;;;;;;;46.90;30.30;;;;;;;6.79;62.03;98441.04;105777;1279;99347;-67
2022/04/21 06:38:36;;;;;;;44.60;29.50;;;;;;;6.82;61.98;98439.76;105795;1279;99192;-66
2022/04/21 06:41:04;;;;;;;42.60;27.90;;;;;;;6.85;62.10;98444.00;105783;1279;112815;-67
2022/04/21 06:49:10;;;;;;;38.80;25.50;;;;;;;6.95;62.31;98453.15;105899;1279;99340;-70
2022/04/21 06:51:44;;;;;;;36.20;23.60;;;;;;;6.95;62.17;98452.12;105862;1279;99287;-68
2022/04/21 06:54:11;;;;;;;36.30;22.10;;;;;;;6.96;62.17;98451.00;105845;1279;112776;-69
2022/04/21 06:56:40;;;;;;;36.30;21.80;;;;;;;6.95;62.10;98456.55;105828;1281;98452;-66
2022/04/21 06:59:08;;;;;;;37.90;23.20;;;;;;;6.89;61.92;98459.06;105791;1281;108390;-66
2022/04/21 07:01:36;;;;;;;34.50;22.40;;;;;;;6.87;62.30;98462.75;105770;1279;100332;-67
2022/04/21 07:04:10;;;;;;;37.00;23.70;;;;;;;6.86;62.17;98461.90;105885;1279;99221;-67
2022/04/21 07:06:38;;;;;;;37.30;24.10;;;;;;;6.88;62.14;98461.09;105883;1279;113433;-69
2022/04/21 07:09:06;;;;;;;38.00;22.90;;;;;;;6.90;62.28;98455.47;105914;1279;99398;-67
2022/04/21 07:11:38;;;;;;;36.50;19.90;;;;;;;6.93;62.27;98456.48;105923;1277;109270;-68
2022/04/21 07:14:07;;;;;;;38.60;24.30;;;;;;;6.91;62.34;98458.20;105867;1277;99327;-67
2022/04/21 07:16:36;;;;;;;35.50;21.60;;;;;;;6.87;62.21;98461.33;105902;1277;99279;-68
2022/04/21 07:19:05;;;;;;;36.60;21.70;;;;;;;6.89;62.61;98464.33;105940;1277;113340;-67
2022/04/21 07:21:33;;;;;;;34.50;21.40;;;;;;;6.95;62.40;98463.73;105932;1277;97914;-68
2022/04/21 07:24:06;;;;;;;39.60;24.80;;;;;;;6.99;62.44;98462.41;105933;1279;108315;-67
2022/04/21 07:26:35;;;;;;;36.20;21.40;;;;;;;7.02;62.42;98466.28;105930;1279;96697;-67
2022/04/21 07:29:03;;;;;;;33.70;20.20;;;;;;;7.00;62.31;98472.06;105895;1279;99334;-69
2022/04/21 07:31:32;;;;;;;38.20;22.20;;;;;;;7.00;62.19;98472.22;105923;1277;113761;-67
2022/04/21 07:34:02;;;;;;;33.00;20.50;;;;;;;7.00;62.35;98470.86;106027;1277;99228;-67
2022/04/21 07:36:33;;;;;;;35.70;20.90;;;;;;;7.06;62.55;98467.77;105904;1279;109492;-69
2022/04/21 07:39:04;;;;;;;37.70;23.50;;;;;;;7.17;62.77;98466.02;105955;1279;99239;-70
2022/04/21 07:41:35;;;;;;;36.20;20.90;;;;;;;7.26;62.80;98465.17;105991;1278;99157;-67
2022/04/21 07:44:07;;;;;;;35.40;21.60;;;;;;;7.36;62.89;98470.51;105976;1277;113617;-67
2022/04/21 07:46:36;;;;;;;35.90;21.30;;;;;;;7.44;62.69;98469.46;105969;1277;98492;-67
2022/04/21 07:53:13;;;;;;;40.20;24.60;;;;;;;7.60;62.61;98464.43;105789;1278;96698;-67
2022/04/21 07:54:44;;;;;;;36.90;22.10;;;;;;;7.65;62.59;98461.46;105817;1277;98019;-64
2022/04/21 07:57:13;;;;;;;36.90;21.80;;;;;;;7.69;62.53;98455.90;105893;1277;113756;-68
2022/04/21 07:59:42;;;;;;;33.70;20.10;;;;;;;7.83;62.65;98458.63;105932;1277;99310;-69
2022/04/21 08:02:12;;;;;;;36.20;21.40;;;;;;;7.94;62.55;98453.24;105850;1277;108328;-68
2022/04/21 08:04:44;;;;;;;33.80;20.00;;;;;;;8.00;62.73;98455.25;105772;1278;99119;-68
2022/04/21 08:07:14;;;;;;;30.80;19.20;;;;;;;8.08;62.61;98461.59;105896;1277;99330;-71
2022/04/21 08:09:44;;;;;;;31.10;19.40;;;;;;;8.16;62.66;98460.14;105859;1279;114749;-68
2022/04/21 08:12:12;;;;;;;32.10;19.10;;;;;;;8.18;62.64;98462.23;105779;1278;99160;-67
2022/04/21 08:14:42;;;;;;;30.50;18.20;;;;;;;8.12;62.65;98460.84;105889;1277;109438;-67
2022/04/21 08:17:10;;;;;;;32.80;19.10;;;;;;;8.07;62.70;98461.17;105759;1278;99239;-67
2022/04/21 08:19:40;;;;;;;31.60;19.10;;;;;;;8.05;62.59;98457.39;105822;1277;99341;-68
2022/04/21 08:22:08;;;;;;;31.10;17.70;;;;;;;8.09;62.57;98458.71;105786;1277;113431;-68
2022/04/21 08:33:18;;;;;;;29.50;17.90;;;;;;;8.10;62.70;98463.06;105818;1277;99259;-69
2022/04/21 08:35:49;;;;;;;26.70;15.90;;;;;;;8.12;62.54;98463.13;105805;1277;113674;-70
2022/04/21 08:38:17;;;;;;;29.20;17.10;;;;;;;8.12;62.79;98460.44;105741;1277;99089;-67
2022/04/21 08:40:56;;;;;;;28.40;15.80;;;;;;;8.12;62.68;98463.64;105707;1278;108297;-67
2022/04/21 08:43:27;;;;;;;27.10;14.10;;;;;;;8.12;62.67;98463.09;105752;1277;99311;-68
2022/04/21 08:45:57;;;;;;;28.10;14.50;;;;;;;8.12;62.65;98462.95;105744;1277;99227;-68
2022/04/21 08:48:26;;;;;;;26.60;14.60;;;;;;;8.14;62.54;98456.79;105782;1277;113381;-70
2022/04/21 08:50:54;;;;;;;28.50;15.80;;;;;;;8.16;62.72;98458.04;105792;1277;99419;-68
2022/04/21 08:53:26;;;;;;;27.20;14.50;;;;;;;8.17;62.51;98454.91;105736;1277;108453;-69
2022/04/21 08:55:56;;;;;;;24.60;12.60;;;;;;;8.21;62.64;98455.89;105697;1277;99314;-67
2022/04/21 08:58:24;;;;;;;26.30;13.10;;;;;;;8.21;62.33;98455.02;105859;1277;99227;-67
2022/04/21 09:00:54;;;;;;;24.70;13.20;;;;;;;8.23;62.57;98454.73;105813;1277;113426;-68
2022/04/21 09:03:26;;;;;;;22.60;11.70;;;;;;;8.28;62.69;98449.56;105858;1277;100394;-67
2022/04/21 09:05:54;;;;;;;24.00;12.50;;;;;;;8.36;62.67;98449.16;105740;1278;108434;-67
2022/04/21 09:08:27;;;;;;;25.80;12.60;;;;;;;8.40;62.47;98450.61;105742;1279;99250;-66
2022/04/21 09:11:07;;;;;;;25.60;13.30;;;;;;;8.42;62.33;98454.91;105764;1279;99242;-66
2022/04/21 09:13:42;;;;;;;26.20;13.70;;;;;;;8.41;62.46;98450.06;105766;1279;112832;-67
2022/04/21 09:16:12;;;;;;;23.50;12.60;;;;;;;8.45;62.65;98452.73;105823;1277;99421;-68
2022/04/21 09:18:44;;;;;;;27.00;13.10;;;;;;;8.50;62.49;98455.63;105660;1279;108416;-68
2022/04/21 09:21:17;;;;;;;27.50;13.50;;;;;;;8.50;62.41;98457.21;105781;1278;97760;-69
2022/04/21 09:23:50;;;;;;;24.60;12.00;;;;;;;8.52;62.50;98453.02;105734;1277;99360;-68
2022/04/21 09:26:21;;;;;;;26.50;13.10;;;;;;;8.56;62.56;98453.77;105733;1279;113341;-70
2022/04/21 09:28:56;;;;;;;23.00;12.50;;;;;;;8.57;62.47;98452.23;105776;1279;98979;-69
2022/04/21 09:31:29;;;;;;;26.70;14.30;;;;;;;8.62;62.46;98452.42;105760;1277;108032;-69
2022/04/21 09:34:00;;;;;;;27.70;14.10;;;;;;;8.68;62.42;98451.31;105758;1277;99315;-69
2022/04/21 09:36:30;;;;;;;24.30;12.80;;;;;;;8.71;62.47;98449.98;105774;1279;99259;-70
2022/04/21 09:39:01;;;;;;;25.20;13.70;;;;;;;8.76;62.53;98450.29;105770;1277;112750;-68
2022/04/21 09:41:31;;;;;;;29.00;15.50;;;;;;;8.83;62.27;98447.55;105867;1278;99259;-67
2022/04/21 09:47:07;;;;;;;25.70;13.40;;;;;;;8.89;62.29;98449.03;105778;1279;99172;-67
2022/04/21 09:49:37;;;;;;;26.30;14.20;;;;;;;8.90;62.21;98447.86;105820;1278;99242;-67
2022/04/21 09:52:07;;;;;;;28.60;15.20;;;;;;;8.88;62.34;98445.95;105837;1277;112768;-67
2022/04/21 09:54:40;;;;;;;26.80;15.30;;;;;;;8.90;62.46;98446.67;105611;1278;99389;-68
2022/04/21 09:57:09;;;;;;;25.60;13.60;;;;;;;8.95;62.39;98448.75;105854;1277;108811;-68
2022/04/21 09:59:40;;;;;;;26.00;14.60;;;;;;;8.99;62.34;98444.70;105905;1277;99252;-68
2022/04/21 10:02:08;;;;;;;26.70;14.20;;;;;;;9.00;62.40;98448.72;105898;1277;99349;-69
2022/04/21 10:04:37;;;;;;;28.20;15.10;;;;;;;9.02;62.39;98444.80;105801;1277;113325;-67
2022/04/21 10:07:05;;;;;;;35.50;18.90;;;;;;;9.02;62.32;98445.58;105798;1277;99320;-68
2022/04/21 10:09:33;;;;;;;31.70;18.80;;;;;;;9.06;62.36;98444.88;105719;1277;108084;-66
2022/04/21 10:12:01;;;;;;;28.70;16.00;;;;;;;9.14;62.40;98446.60;105653;1277;99334;-68
2022/04/21 10:14:29;;;;;;;28.50;15.00;;;;;;;9.24;62.36;98449.38;105588;1279;99364;-68
2022/04/21 10:16:57;;;;;;;28.00;14.70;;;;;;;9.33;62.43;98447.61;105614;1277;114257;-68
2022/04/21 10:19:25;;;;;;;26.50;14.40;;;;;;;9.40;62.43;98450.94;105578;1277;99321;-68
2022/04/21 10:21:56;;;;;;;25.10;13.00;;;;;;;9.46;62.30;98444.31;105715;1277;108392;-67
2022/04/21 10:24:27;;;;;;;25.40;14.40;;;;;;;9.51;62.38;98442.47;105761;1277;99245;-67
2022/04/21 10:26:56;;;;;;;27.20;14.70;;;;;;;9.53;62.30;98442.70;105812;1277;99350;-68
2022/04/21 10:29:27;;;;;;;30.60;14.90;;;;;;;9.56;62.36;98445.50;105872;1277;112746;-66
2022/04/21 10:32:05;;;;;;;26.90;13.50;;;;;;;9.64;62.36;98446.30;105914;1277;99314;-68
2022/04/21 10:34:37;;;;;;;27.30;12.60;;;;;;;9.64;62.31;98446.59;105894;1278;108455;-68
2022/04/21 10:37:08;;;;;;;24.50;12.00;;;;;;;9.64;62.31;98452.30;105854;1279;99326;-66
2022/04/21 10:39:39;;;;;;;21.50;10.40;;;;;;;9.58;62.22;98446.39;105845;1279;96734;-67
2022/04/21 10:42:14;;;;;;;24.30;12.00;;;;;;;9.57;62.17;98448.82;105812;1278;112774;-67
2022/04/21 10:44:45;;;;;;;23.50;10.90;;;;;;;9.56;62.11;98448.52;105853;1277;99204;-67
2022/04/21 10:47:31;;;;;;;22.70;10.40;;;;;;;9.59;62.23;98448.25;105850;1277;108399;-69
2022/04/21 10:50:19;;;;;;;22.30;10.10;;;;;;;9.61;62.19;98453.27;105844;1277;99323;-68
2022/04/21 10:58:34;;;;;;;19.20;9.20;;;;;;;9.63;62.12;98454.14;105820;1277;99340;-67
2022/04/21 11:01:12;;;;;;;20.40;10.70;;;;;;;9.62;62.02;98457.06;105763;1278;108532;-69
2022/04/21 11:03:43;;;;;;;22.10;10.40;;;;;;;9.58;61.98;98450.16;105836;1277;99237;-69
2022/04/21 11:06:15;;;;;;;20.90;9.10;;;;;;;9.61;61.99;98453.91;105810;1277;99199;-67
2022/04/21 11:08:44;;;;;;;22.10;10.20;;;;;;;9.64;61.94;98448.79;105817;1277;112785;-68
2022/04/21 11:11:33;;;;;;;22.30;11.20;;;;;;;9.66;62.05;98448.98;105898;1277;97859;-68
2022/04/21 11:14:06;;;;;;;20.40;9.60;;;;;;;9.77;62.13;98441.91;105713;1279;108461;-68
2022/04/21 11:16:40;;;;;;;;;;;;;;;9.90;62.06;98444.11;105837;1277;100796;-67
2022/04/21 11:19:32;;;;;;;20.60;9.20;;;;;;;9.95;62.04;98437.98;105889;1277;97698;-68
2022/04/21 11:22:08;;;;;;;19.40;9.70;;;;;;;10.05;61.93;98439.52;105808;1277;112361;-67
2022/04/21 11:24:54;;;;;;;22.10;9.90;;;;;;;10.10;62.05;98436.60;105807;1279;98355;-68
2022/04/21 11:27:23;;;;;;;19.70;9.40;;;;;;;10.25;62.19;98443.77;105848;1278;107423;-68
2022/04/21 11:29:52;;;;;;;21.00;9.30;;;;;;;10.34;61.92;98441.59;105951;1277;99236;-68
2022/04/21 11:32:20;;;;;;;19.60;7.90;;;;;;;10.38;61.86;98437.20;105964;1278;99308;-68
2022/04/21 11:35:18;;;;;;;17.30;8.20;;;;;;;10.40;61.96;98439.16;105826;1277;113327;-69
2022/04/21 11:37:45;;;;;;;19.10;8.50;;;;;;;10.39;61.78;98442.46;105752;1279;99246;-67
2022/04/21 11:40:39;;;;;;;18.80;8.80;;;;;;;10.35;61.81;98437.10;105948;1277;108286;-66
2022/04/21 11:43:18;;;;;;;17.90;8.00;;;;;;;10.29;61.61;98441.48;105880;1279;99342;-67
2022/04/21 11:46:02;;;;;;;17.20;8.10;;;;;;;10.17;61.61;98443.33;105904;1278;99199;-67
2022/04/21 11:48:34;;;;;;;20.20;8.90;;;;;;;10.15;61.62;98441.55;105726;1279;112763;-67
2022/04/21 11:51:04;;;;;;;17.90;8.20;;;;;;;10.21;61.73;98440.85;105842;1279;99321;-67
2022/04/21 11:53:40;;;;;;;20.40;8.80;;;;;;;10.24;61.64;98445.02;105811;1278;107865;-68
2022/04/21 11:56:12;;;;;;;19.10;8.10;;;;;;;10.31;61.63;98445.77;105783;1279;99328;-66
2022/04/21 11:58:45;;;;;;;19.30;8.40;;;;;;;10.31;61.48;98443.30;105802;1277;98170;-67
2022/04/21 12:07:02;;;;;;;18.90;7.10;;;;;;;10.26;61.34;98434.10;105749;1278;108430;-67
2022/04/21 12:09:34;;;;;;;17.90;7.90;;;;;;;10.30;61.29;98439.62;105752;1277;99316;-69
2022/04/21 12:12:08;;;;;;;17.80;8.50;;;;;;;10.35;61.44;98427.69;105778;1278;97789;-67
2022/04/21 12:14:44;;;;;;;19.80;8.70;;;;;;;10.45;61.43;98430.48;105805;1277;113704;-68
2022/04/21 12:17:13;;;;;;;17.50;8.20;;;;;;;10.52;61.34;98426.19;105917;1277;99782;-68
2022/04/21 12:19:45;;;;;;;16.50;7.70;;;;;;;10.51;61.09;98425.52;105764;1278;108593;-69
2022/04/21 12:22:21;;;;;;;18.10;8.80;;;;;;;10.47;61.10;98421.64;105775;1278;99220;-68